createdAt,value
2022-12-19T00:02:57.770Z,-7.73
2022-12-19T00:06:04.546Z,-7.61
2022-12-19T00:09:07.064Z,-7.67
2022-12-19T00:12:10.655Z,-7.66
2022-12-19T00:15:15.630Z,-7.67
2022-12-19T00:18:17.904Z,-7.52
2022-12-19T00:21:21.897Z,-7.64
2022-12-19T00:24:24.237Z,-7.57
2022-12-19T00:27:26.600Z,-7.83
2022-12-19T00:30:28.880Z,-7.77
2022-12-19T00:33:31.973Z,-7.79
2022-12-19T00:36:35.859Z,-7.65
2022-12-19T00:39:38.145Z,-7.56
2022-12-19T00:42:41.524Z,-7.56
2022-12-19T00:45:44.324Z,-7.63
2022-12-19T00:48:46.724Z,-7.88
2022-12-19T00:51:49.463Z,-7.78
2022-12-19T00:54:51.736Z,-7.53
2022-12-19T00:57:55.141Z,-7.77
2022-12-19T01:01:09.808Z,-7.78
2022-12-19T01:04:28.069Z,-7.55
2022-12-19T01:07:31.180Z,-7.57
2022-12-19T01:10:36.386Z,-7.50
2022-12-19T01:13:40.481Z,-7.54
2022-12-19T01:16:44.590Z,-7.70
2022-12-19T01:19:47.078Z,-7.66
2022-12-19T01:22:49.414Z,-7.85
2022-12-19T01:25:54.488Z,-7.81
2022-12-19T01:28:58.003Z,-7.86
2022-12-19T01:32:00.344Z,-8.02
2022-12-19T01:35:03.387Z,-7.94
2022-12-19T01:38:08.533Z,-7.97
2022-12-19T01:41:11.457Z,-7.94
2022-12-19T01:44:13.780Z,-7.96
2022-12-19T01:47:16.283Z,-7.73
2022-12-19T01:50:22.341Z,-7.65
2022-12-19T01:53:29.347Z,-7.48
2022-12-19T01:56:34.485Z,-7.72
2022-12-19T01:59:58.155Z,-7.76
2022-12-19T02:03:24.385Z,-7.81
2022-12-19T02:06:27.823Z,-7.98
2022-12-19T02:09:30.303Z,-7.93
2022-12-19T02:12:35.927Z,-8.00
2022-12-19T02:16:01.163Z,-8.01
2022-12-19T02:19:37.232Z,-8.03
2022-12-19T02:22:57.637Z,-7.94
2022-12-19T02:26:08.908Z,-7.99
2022-12-19T02:29:41.248Z,-7.90
2022-12-19T02:33:00.136Z,-7.75
2022-12-19T02:36:30.180Z,-7.78
2022-12-19T02:39:55.819Z,-7.85
2022-12-19T02:43:00.500Z,-8.06
2022-12-19T02:46:04.749Z,-8.11
2022-12-19T02:49:09.741Z,-8.08
2022-12-19T02:52:33.219Z,-8.05
2022-12-19T02:56:09.364Z,-8.15
2022-12-19T02:59:42.747Z,-7.95
2022-12-19T03:03:12.385Z,-7.96
2022-12-19T03:06:26.224Z,-7.90
2022-12-19T03:09:48.694Z,-7.95
2022-12-19T03:13:10.636Z,-8.05
2022-12-19T03:16:14.649Z,-8.10
2022-12-19T03:19:17.325Z,-8.11
2022-12-19T03:22:19.764Z,-8.17
2022-12-19T03:25:23.327Z,-8.18
2022-12-19T03:28:39.221Z,-8.20
2022-12-19T03:31:42.741Z,-8.07
2022-12-19T03:34:50.649Z,-8.07
2022-12-19T03:37:55.188Z,-8.11
2022-12-19T03:40:58.277Z,-8.07
2022-12-19T03:44:00.708Z,-8.16
2022-12-19T03:47:27.381Z,-8.35
2022-12-19T03:50:33.952Z,-8.25
2022-12-19T03:53:42.321Z,-8.30
2022-12-19T03:57:13.279Z,-8.46
2022-12-19T04:00:16.972Z,-8.20
2022-12-19T04:03:20.351Z,-8.24
2022-12-19T04:06:22.641Z,-8.36
2022-12-19T04:09:25.231Z,-8.34
2022-12-19T04:12:31.385Z,-8.44
2022-12-19T04:16:00.065Z,-8.23
2022-12-19T04:19:16.534Z,-8.50
2022-12-19T04:22:24.484Z,-8.58
2022-12-19T04:25:30.661Z,-8.49
2022-12-19T04:28:39.734Z,-8.50
2022-12-19T04:31:42.231Z,-8.46
2022-12-19T04:34:44.654Z,-8.41
2022-12-19T04:37:47.111Z,-8.54
2022-12-19T04:40:49.519Z,-8.60
2022-12-19T04:43:52.494Z,-8.74
2022-12-19T04:46:54.882Z,-8.64
2022-12-19T04:49:57.289Z,-8.74
2022-12-19T04:52:59.509Z,-8.68
2022-12-19T04:56:03.204Z,-8.71
2022-12-19T04:59:05.522Z,-8.71
2022-12-19T05:02:08.120Z,-8.88
2022-12-19T05:05:10.627Z,-8.77
2022-12-19T05:08:13.008Z,-8.81
2022-12-19T05:11:19.715Z,-8.72
2022-12-19T05:14:22.515Z,-8.51
2022-12-19T05:17:24.812Z,-8.64
2022-12-19T05:20:27.065Z,-8.65
2022-12-19T05:23:29.663Z,-8.68
2022-12-19T05:26:32.014Z,-8.84
2022-12-19T05:29:34.891Z,-8.79
2022-12-19T05:32:37.251Z,-8.71
2022-12-19T05:35:40.079Z,-8.72
2022-12-19T05:38:42.683Z,-8.67
2022-12-19T05:41:48.848Z,-8.88
2022-12-19T05:44:51.506Z,-8.65
2022-12-19T05:47:56.608Z,-8.73
2022-12-19T05:51:02.313Z,-8.72
2022-12-19T05:54:04.851Z,-8.83
2022-12-19T05:57:07.244Z,-8.62
2022-12-19T06:00:10.348Z,-8.60
2022-12-19T06:03:15.441Z,-8.56
2022-12-19T06:06:20.242Z,-8.57
2022-12-19T06:09:22.556Z,-8.67
2022-12-19T06:12:26.500Z,-8.60
2022-12-19T06:15:28.836Z,-8.63
2022-12-19T06:18:32.005Z,-8.60
2022-12-19T06:21:34.406Z,-8.54
2022-12-19T06:24:36.793Z,-8.58
2022-12-19T06:27:39.079Z,-8.61
2022-12-19T06:30:41.427Z,-8.58
2022-12-19T06:33:43.757Z,-8.47
2022-12-19T06:36:46.226Z,-8.56
2022-12-19T06:39:48.491Z,-8.71
2022-12-19T06:42:50.831Z,-8.54
2022-12-19T06:45:53.166Z,-8.30
2022-12-19T06:48:55.503Z,-8.39
2022-12-19T06:51:57.859Z,-8.53
2022-12-19T06:55:00.265Z,-8.40
2022-12-19T06:58:02.588Z,-8.41
2022-12-19T07:01:05.419Z,-8.36
2022-12-19T07:04:08.577Z,-8.59
2022-12-19T07:07:10.885Z,-8.62
2022-12-19T07:10:13.303Z,-8.40
2022-12-19T07:13:15.924Z,-8.27
2022-12-19T07:16:18.385Z,-8.50
2022-12-19T07:19:21.432Z,-8.29
2022-12-19T07:22:24.627Z,-8.36
2022-12-19T07:25:26.955Z,-8.48
2022-12-19T07:28:29.435Z,-8.39
2022-12-19T07:31:31.774Z,-8.36
2022-12-19T07:34:34.658Z,-8.17
2022-12-19T07:37:36.933Z,-8.11
2022-12-19T07:40:39.232Z,-8.17
2022-12-19T07:43:41.526Z,-8.42
2022-12-19T07:46:44.834Z,-8.05
2022-12-19T07:49:47.192Z,-8.20
2022-12-19T07:52:49.540Z,-8.13
2022-12-19T07:55:52.681Z,-7.84
2022-12-19T07:58:55.046Z,-8.08
2022-12-19T08:01:57.617Z,-7.93
2022-12-19T08:05:03.798Z,-7.96
2022-12-19T08:08:06.199Z,-7.94
2022-12-19T08:11:13.694Z,-7.74
2022-12-19T08:14:16.114Z,-7.71
2022-12-19T08:17:20.939Z,-7.69
2022-12-19T08:20:23.783Z,-7.63
2022-12-19T08:23:26.211Z,-7.48
2022-12-19T08:26:32.531Z,-7.55
2022-12-19T08:29:39.994Z,-7.37
2022-12-19T08:32:42.435Z,-7.37
2022-12-19T08:35:44.804Z,-7.40
2022-12-19T08:38:47.854Z,-7.48
2022-12-19T08:41:50.210Z,-7.22
2022-12-19T08:44:52.562Z,-7.15
2022-12-19T08:47:55.453Z,-7.20
2022-12-19T08:50:59.751Z,-7.17
2022-12-19T08:54:02.087Z,-7.17
2022-12-19T08:57:10.137Z,-7.16
2022-12-19T09:00:13.028Z,-7.14
2022-12-19T09:03:16.285Z,-7.03
2022-12-19T09:06:21.095Z,-6.93
2022-12-19T09:09:23.503Z,-6.80
2022-12-19T09:12:26.082Z,-6.72
2022-12-19T09:15:28.379Z,-6.72
2022-12-19T09:18:31.867Z,-6.61
2022-12-19T09:21:34.216Z,-6.40
2022-12-19T09:24:36.525Z,-6.41
2022-12-19T09:28:09.375Z,-6.44
2022-12-19T09:31:06.550Z,-6.34
2022-12-19T09:34:09.009Z,-6.35
2022-12-19T09:37:16.739Z,-6.21
2022-12-19T09:40:19.905Z,-6.15
2022-12-19T09:43:48.404Z,-6.12
2022-12-19T09:46:56.992Z,-6.22
2022-12-19T09:50:00.663Z,-5.94
2022-12-19T09:53:07.091Z,-6.07
2022-12-19T09:56:16.240Z,-5.96
2022-12-19T09:59:39.699Z,-5.68
2022-12-19T10:03:08.619Z,-5.78
2022-12-19T10:07:10.430Z,-5.59
2022-12-19T10:11:46.885Z,-5.68
2022-12-19T10:13:28.879Z,-5.55
2022-12-19T10:17:01.715Z,-5.44
2022-12-19T10:20:19.341Z,-5.50
2022-12-19T10:23:40.184Z,-5.61
2022-12-19T10:26:59.949Z,-5.57
2022-12-19T10:30:18.319Z,-5.28
2022-12-19T10:33:31.092Z,-5.21
2022-12-19T10:40:28.454Z,-5.00
2022-12-19T10:43:52.801Z,-4.68
2022-12-19T10:46:55.062Z,-4.59
2022-12-19T10:49:57.561Z,-4.64
2022-12-19T10:53:07.476Z,-4.57
2022-12-19T10:56:19.591Z,-4.54
2022-12-19T10:59:22.629Z,-4.37
2022-12-19T11:02:35.481Z,-4.39
2022-12-19T11:05:57.521Z,-4.18
2022-12-19T11:09:39.806Z,-4.17
2022-12-19T11:16:38.305Z,-4.14
2022-12-19T11:19:38.234Z,-4.11
2022-12-19T11:29:40.714Z,-3.91
2022-12-19T11:29:45.165Z,-4.14
2022-12-19T11:30:39.546Z,-3.71
2022-12-19T11:33:39.405Z,-3.67
2022-12-19T11:36:56.801Z,-3.90
2022-12-19T11:40:04.358Z,-3.65
2022-12-19T11:46:40.166Z,-3.73
2022-12-19T11:49:51.778Z,-3.66
2022-12-19T11:53:05.661Z,-3.54
2022-12-19T11:56:16.527Z,-3.71
2022-12-19T11:59:21.356Z,-3.63
2022-12-19T12:02:47.944Z,-3.70
2022-12-19T12:05:50.779Z,-3.69
2022-12-19T12:12:50.077Z,-3.72
2022-12-19T12:20:40.905Z,-3.60
2022-12-19T12:26:02.064Z,-3.65
2022-12-19T12:31:13.554Z,-3.61
2022-12-19T12:31:14.692Z,-3.63
2022-12-19T12:31:46.927Z,-3.54
2022-12-19T12:31:47.165Z,-3.50
2022-12-19T12:35:34.256Z,-3.61
2022-12-19T12:38:14.356Z,-3.65
2022-12-19T12:40:56.290Z,-3.77
2022-12-19T12:44:12.158Z,-3.81
2022-12-19T12:47:25.750Z,-3.75
2022-12-19T12:50:28.943Z,-3.62
2022-12-19T12:53:37.666Z,-3.57
2022-12-19T12:56:40.787Z,-3.49
2022-12-19T12:59:46.220Z,-3.62
2022-12-19T13:03:14.738Z,-3.59
2022-12-19T13:06:37.393Z,-3.66
2022-12-19T13:09:40.620Z,-3.69
2022-12-19T13:13:14.641Z,-3.79
2022-12-19T13:16:43.779Z,-3.64
2022-12-19T13:20:06.376Z,-3.64
2022-12-19T13:23:37.501Z,-3.76
2022-12-19T13:26:50.074Z,-3.82
2022-12-19T13:30:03.904Z,-3.60
2022-12-19T13:33:08.446Z,-3.58
2022-12-19T13:39:48.494Z,-3.63
2022-12-19T13:40:32.962Z,-3.65
2022-12-19T13:43:46.435Z,-3.63
2022-12-19T13:46:48.917Z,-3.51
2022-12-19T13:49:51.324Z,-3.62
2022-12-19T13:52:54.097Z,-3.70
2022-12-19T13:56:00.833Z,-3.72
2022-12-19T13:59:04.836Z,-3.61
2022-12-19T14:02:24.505Z,-3.99
2022-12-19T14:06:15.940Z,-3.79
2022-12-19T14:10:02.861Z,-3.96
2022-12-19T14:14:00.714Z,-3.88
2022-12-19T14:16:18.627Z,-3.94
2022-12-19T14:19:26.430Z,-3.83
2022-12-19T14:22:28.795Z,-3.94
2022-12-19T14:28:19.827Z,-3.93
2022-12-19T14:29:18.400Z,-3.69
2022-12-19T14:33:39.372Z,-3.89
2022-12-19T14:36:09.672Z,-3.85
2022-12-19T14:39:28.873Z,-3.87
2022-12-19T14:43:56.378Z,-4.02
2022-12-19T14:54:01.909Z,-3.95
2022-12-19T14:54:08.630Z,-3.75
2022-12-19T14:54:43.935Z,-3.79
2022-12-19T14:56:59.905Z,-3.89
2022-12-19T15:00:50.907Z,-3.82
2022-12-19T15:04:51.447Z,-4.07
2022-12-19T15:07:27.370Z,-4.05
2022-12-19T15:11:02.896Z,-4.12
2022-12-19T15:14:52.565Z,-4.09
2022-12-19T15:17:25.047Z,-3.99
2022-12-19T15:20:27.455Z,-4.08
2022-12-19T15:23:30.131Z,-4.06
2022-12-19T15:26:37.304Z,-4.05
2022-12-19T15:29:39.611Z,-4.19
2022-12-19T15:32:41.852Z,-4.03
2022-12-19T15:35:45.224Z,-4.08
2022-12-19T15:38:47.560Z,-4.08
2022-12-19T15:41:52.227Z,-3.90
2022-12-19T15:44:56.907Z,-4.04
2022-12-19T15:47:59.338Z,-3.99
2022-12-19T15:51:01.749Z,-4.05
2022-12-19T15:57:32.514Z,-4.05
2022-12-19T16:00:36.270Z,-3.98
2022-12-19T16:03:38.623Z,-4.04
2022-12-19T16:06:41.168Z,-4.11
2022-12-19T16:09:43.442Z,-3.90
2022-12-19T16:12:48.360Z,-3.98
2022-12-19T16:15:51.011Z,-3.83
2022-12-19T16:18:53.391Z,-3.85
2022-12-19T16:21:56.277Z,-3.96
2022-12-19T16:24:58.638Z,-3.81
2022-12-19T16:28:01.851Z,-3.80
2022-12-19T16:31:16.361Z,-3.74
2022-12-19T16:34:21.606Z,-3.63
2022-12-19T16:37:30.157Z,-3.67
2022-12-19T16:40:34.443Z,-3.88
2022-12-19T16:43:39.650Z,-3.77
2022-12-19T16:46:48.693Z,-3.62
2022-12-19T16:49:52.839Z,-3.80
2022-12-19T16:52:56.330Z,-3.85
2022-12-19T16:55:58.818Z,-3.82
2022-12-19T16:59:03.431Z,-3.75
2022-12-19T17:02:38.076Z,-3.70
2022-12-19T17:05:40.650Z,-3.57
2022-12-19T17:08:43.114Z,-3.67
2022-12-19T17:11:48.021Z,-3.63
2022-12-19T17:14:50.339Z,-3.72
2022-12-19T17:17:53.920Z,-3.67
2022-12-19T17:20:56.380Z,-3.52
2022-12-19T17:23:58.628Z,-3.55
2022-12-19T17:27:00.921Z,-3.42
2022-12-19T17:30:03.323Z,-3.44
2022-12-19T17:33:06.257Z,-3.45
2022-12-19T17:36:12.445Z,-3.47
2022-12-19T17:39:22.860Z,-3.30
2022-12-19T17:42:28.736Z,-3.29
2022-12-19T17:45:34.091Z,-3.31
2022-12-19T17:48:36.965Z,-3.30
2022-12-19T17:51:39.348Z,-3.35
2022-12-19T17:54:41.764Z,-3.30
2022-12-19T17:57:44.106Z,-3.23
2022-12-19T18:00:49.824Z,-3.31
2022-12-19T18:03:53.875Z,-3.20
2022-12-19T18:06:56.244Z,-3.30
2022-12-19T18:09:58.760Z,-3.20
2022-12-19T18:13:01.259Z,-3.28
2022-12-19T18:16:04.681Z,-3.08
2022-12-19T18:19:07.386Z,-3.11
2022-12-19T18:22:13.963Z,-3.08
2022-12-19T18:25:21.243Z,-3.23
2022-12-19T18:28:23.678Z,-3.24
2022-12-19T18:31:26.719Z,-3.00
2022-12-19T18:34:31.264Z,-3.03
2022-12-19T18:37:33.811Z,-2.96
2022-12-19T18:40:36.284Z,-2.99
2022-12-19T18:43:38.617Z,-3.00
2022-12-19T18:46:41.043Z,-3.30
2022-12-19T18:49:43.398Z,-3.22
2022-12-19T18:52:46.227Z,-3.24
2022-12-19T18:55:48.813Z,-3.36
2022-12-19T18:58:51.168Z,-3.28
2022-12-19T19:01:55.634Z,-3.27
2022-12-19T19:04:59.389Z,-3.23
2022-12-19T19:08:12.915Z,-2.98
2022-12-19T19:11:15.306Z,-3.18
2022-12-19T19:14:17.858Z,-2.99
2022-12-19T19:18:42.634Z,-2.87
2022-12-19T19:21:45.460Z,-2.98
2022-12-19T19:24:47.699Z,-3.08
2022-12-19T19:27:50.399Z,-2.74
2022-12-19T19:30:53.009Z,-2.66
2022-12-19T19:34:01.694Z,-2.45
2022-12-19T19:37:06.092Z,-2.47
2022-12-19T19:40:09.232Z,-2.54
2022-12-19T19:43:11.604Z,-2.30
2022-12-19T19:46:14.014Z,-2.30
2022-12-19T19:49:16.531Z,-2.40
2022-12-19T19:52:18.928Z,-2.32
2022-12-19T19:55:21.331Z,-2.17
2022-12-19T19:58:24.063Z,-2.29
2022-12-19T20:01:26.813Z,-2.16
2022-12-19T20:04:29.386Z,-2.28
2022-12-19T20:07:31.808Z,-2.30
2022-12-19T20:10:34.371Z,-2.38
2022-12-19T20:13:37.789Z,-2.23
2022-12-19T20:16:40.287Z,-2.33
2022-12-19T20:19:42.729Z,-2.03
2022-12-19T20:22:45.137Z,-2.11
2022-12-19T20:25:47.523Z,-2.20
2022-12-19T20:28:51.040Z,-2.18
2022-12-19T20:31:53.512Z,-1.97
2022-12-19T20:34:55.818Z,-2.15
2022-12-19T20:37:58.141Z,-2.04
2022-12-19T20:41:00.509Z,-2.07
2022-12-19T20:44:02.887Z,-1.96
2022-12-19T20:47:05.461Z,-2.07
2022-12-19T20:50:08.508Z,-1.88
2022-12-19T20:53:10.986Z,-1.87
2022-12-19T20:56:15.739Z,-1.76
2022-12-19T20:59:19.383Z,-1.78
2022-12-19T21:02:21.913Z,-1.69
2022-12-19T21:05:24.530Z,-1.68
2022-12-19T21:08:27.715Z,-1.48
2022-12-19T21:11:30.067Z,-1.69
2022-12-19T21:14:32.430Z,-1.67
2022-12-19T21:17:34.781Z,-1.46
2022-12-19T21:20:39.180Z,-1.36
2022-12-19T21:23:41.686Z,-1.43
2022-12-19T21:26:51.757Z,-1.26
2022-12-19T21:29:56.849Z,-0.96
2022-12-19T21:32:59.247Z,-1.10
2022-12-19T21:36:12.603Z,-0.94
2022-12-19T21:39:15.031Z,-0.84
2022-12-19T21:42:17.381Z,-0.81
2022-12-19T21:45:19.710Z,-0.68
2022-12-19T21:48:22.015Z,-0.66
2022-12-19T21:51:26.738Z,-0.54
2022-12-19T21:54:29.125Z,-0.64
2022-12-19T21:57:31.691Z,-0.60
2022-12-19T22:00:34.169Z,-0.59
2022-12-19T22:03:38.169Z,-0.40
2022-12-19T22:06:41.092Z,-0.49
2022-12-19T22:09:43.421Z,-0.33
2022-12-19T22:12:46.367Z,-0.39
2022-12-19T22:15:48.907Z,-0.28
2022-12-19T22:18:53.112Z,-0.42
2022-12-19T22:21:55.604Z,-0.46
2022-12-19T22:24:57.958Z,-0.35
2022-12-19T22:28:00.351Z,-0.44
2022-12-19T22:31:03.024Z,-0.47
2022-12-19T22:34:11.334Z,-0.35
2022-12-19T22:37:13.721Z,-0.72
2022-12-19T22:40:16.334Z,-0.42
2022-12-19T22:43:18.962Z,-0.45
2022-12-19T22:46:27.739Z,-0.43
2022-12-19T22:49:30.801Z,-0.49
2022-12-19T22:52:33.271Z,-0.38
2022-12-19T22:55:35.650Z,-0.28
2022-12-19T22:58:39.983Z,-0.52
2022-12-19T23:01:43.821Z,-0.33
2022-12-19T23:04:46.102Z,-0.36
2022-12-19T23:07:48.339Z,-0.17
2022-12-19T23:10:52.644Z,-0.32
2022-12-19T23:13:55.405Z,-0.37
2022-12-19T23:16:57.719Z,-0.48
2022-12-19T23:20:00.130Z,-0.22
2022-12-19T23:23:02.441Z,-0.36
2022-12-19T23:26:08.471Z,-0.15
2022-12-19T23:29:16.793Z,-0.12
2022-12-19T23:32:19.173Z,-0.16
2022-12-19T23:35:21.475Z,-0.33
2022-12-19T23:38:24.104Z,-0.15
2022-12-19T23:41:26.345Z,-0.28
2022-12-19T23:44:28.821Z,-0.19
2022-12-19T23:47:31.200Z,-0.21
2022-12-19T23:50:33.742Z,-0.22
2022-12-19T23:53:36.125Z,-0.09
2022-12-19T23:56:38.633Z,-0.14
2022-12-19T23:59:41.633Z,-0.20
